createdAt,value
2022-09-30T00:01:30.807Z,100.00
2022-09-30T00:04:00.835Z,100.00
2022-09-30T00:06:31.563Z,100.00
2022-09-30T00:09:00.792Z,100.00
2022-09-30T00:11:32.336Z,100.00
2022-09-30T00:14:03.545Z,100.00
2022-09-30T00:16:35.481Z,100.00
2022-09-30T00:19:05.683Z,100.00
2022-09-30T00:21:35.326Z,100.00
2022-09-30T00:24:05.401Z,100.00
2022-09-30T00:26:35.731Z,100.00
2022-09-30T00:29:06.763Z,100.00
2022-09-30T00:31:36.685Z,100.00
2022-09-30T00:34:08.852Z,100.00
2022-09-30T00:36:40.989Z,100.00
2022-09-30T00:39:12.081Z,100.00
2022-09-30T00:41:41.302Z,100.00
2022-09-30T00:44:51.116Z,100.00
2022-09-30T00:47:37.065Z,100.00
2022-09-30T00:50:14.688Z,100.00
2022-09-30T00:52:45.428Z,100.00
2022-09-30T00:55:28.370Z,100.00
2022-09-30T00:57:58.634Z,100.00
2022-09-30T01:00:29.075Z,100.00
2022-09-30T01:02:58.764Z,100.00
2022-09-30T01:05:28.005Z,100.00
2022-09-30T01:08:01.261Z,100.00
2022-09-30T01:10:30.911Z,100.00
2022-09-30T01:13:00.865Z,100.00
2022-09-30T01:15:54.233Z,100.00
2022-09-30T01:18:31.421Z,100.00
2022-09-30T01:21:23.619Z,100.00
2022-09-30T01:24:17.638Z,100.00
2022-09-30T01:27:07.697Z,100.00
2022-09-30T01:29:57.367Z,100.00
2022-09-30T01:32:41.536Z,100.00
2022-09-30T01:35:18.299Z,100.00
2022-09-30T01:38:00.342Z,100.00
2022-09-30T01:40:40.845Z,100.00
2022-09-30T01:43:16.329Z,100.00
2022-09-30T01:45:50.639Z,100.00
2022-09-30T01:48:27.459Z,100.00
2022-09-30T01:51:00.551Z,100.00
2022-09-30T01:53:38.464Z,100.00
2022-09-30T01:56:13.694Z,100.00
2022-09-30T01:58:51.970Z,100.00
2022-09-30T02:01:26.689Z,100.00
2022-09-30T02:04:00.474Z,100.00
2022-09-30T02:06:35.005Z,100.00
2022-09-30T02:09:08.790Z,100.00
2022-09-30T02:11:39.353Z,100.00
2022-09-30T02:14:15.054Z,100.00
2022-09-30T02:16:49.073Z,100.00
2022-09-30T02:19:23.370Z,100.00
2022-09-30T02:21:58.092Z,100.00
2022-09-30T02:24:32.411Z,100.00
2022-09-30T02:27:04.332Z,100.00
2022-09-30T02:29:38.665Z,100.00
2022-09-30T02:32:14.881Z,100.00
2022-09-30T02:34:51.567Z,100.00
2022-09-30T02:37:26.493Z,100.00
2022-09-30T02:40:01.617Z,100.00
2022-09-30T02:42:32.858Z,100.00
2022-09-30T02:45:04.257Z,100.00
2022-09-30T02:47:46.548Z,100.00
2022-09-30T02:50:21.586Z,100.00
2022-09-30T02:53:03.436Z,100.00
2022-09-30T02:55:36.571Z,100.00
2022-09-30T02:58:13.173Z,100.00
2022-09-30T03:00:42.381Z,100.00
2022-09-30T03:03:18.555Z,100.00
2022-09-30T03:05:51.102Z,100.00
2022-09-30T03:08:20.270Z,100.00
2022-09-30T03:10:52.094Z,100.00
2022-09-30T03:13:57.064Z,100.00
2022-09-30T03:16:36.922Z,100.00
2022-09-30T03:19:22.956Z,100.00
2022-09-30T03:22:07.884Z,100.00
2022-09-30T03:24:59.017Z,100.00
2022-09-30T03:27:36.813Z,100.00
2022-09-30T03:30:09.141Z,100.00
2022-09-30T03:32:57.882Z,100.00
2022-09-30T03:35:33.384Z,100.00
2022-09-30T03:38:15.146Z,100.00
2022-09-30T03:40:53.999Z,100.00
2022-09-30T03:43:30.876Z,100.00
2022-09-30T03:46:07.713Z,100.00
2022-09-30T03:48:41.924Z,100.00
2022-09-30T03:51:11.258Z,100.00
2022-09-30T03:53:42.887Z,100.00
2022-09-30T03:56:12.089Z,100.00
2022-09-30T03:58:44.140Z,100.00
2022-09-30T04:01:21.564Z,100.00
2022-09-30T04:03:52.543Z,100.00
2022-09-30T04:06:23.591Z,100.00
2022-09-30T04:08:54.371Z,100.00
2022-09-30T04:11:23.889Z,100.00
2022-09-30T04:13:53.097Z,100.00
2022-09-30T04:16:22.078Z,100.00
2022-09-30T04:18:52.287Z,100.00
2022-09-30T04:21:21.949Z,100.00
2022-09-30T04:23:53.125Z,100.00
2022-09-30T04:26:23.145Z,100.00
2022-09-30T04:28:54.176Z,100.00
2022-09-30T04:31:23.711Z,100.00
2022-09-30T04:33:52.780Z,100.00
2022-09-30T04:36:21.794Z,100.00
2022-09-30T04:38:51.161Z,100.00
2022-09-30T04:41:21.746Z,100.00
2022-09-30T04:43:51.296Z,100.00
2022-09-30T04:46:22.762Z,100.00
2022-09-30T04:48:52.179Z,100.00
2022-09-30T04:51:22.701Z,100.00
2022-09-30T04:53:51.876Z,100.00
2022-09-30T04:56:22.950Z,100.00
2022-09-30T04:58:53.338Z,100.00
2022-09-30T05:01:22.741Z,100.00
2022-09-30T05:03:52.412Z,100.00
2022-09-30T05:06:22.058Z,100.00
2022-09-30T05:08:51.495Z,100.00
2022-09-30T05:11:23.082Z,100.00
2022-09-30T05:13:52.353Z,100.00
2022-09-30T05:16:22.351Z,100.00
2022-09-30T05:18:51.774Z,100.00
2022-09-30T05:21:21.293Z,100.00
2022-09-30T05:23:50.905Z,100.00
2022-09-30T05:26:21.472Z,100.00
2022-09-30T05:28:50.955Z,100.00
2022-09-30T05:31:20.902Z,100.00
2022-09-30T05:33:53.532Z,100.00
2022-09-30T05:36:26.405Z,100.00
2022-09-30T05:38:55.918Z,100.00
2022-09-30T05:41:26.800Z,100.00
2022-09-30T05:43:55.819Z,100.00
2022-09-30T05:46:24.765Z,100.00
2022-09-30T05:48:55.521Z,100.00
2022-09-30T05:51:25.243Z,100.00
2022-09-30T05:53:54.184Z,100.00
2022-09-30T05:56:23.122Z,100.00
2022-09-30T05:58:53.587Z,100.00
2022-09-30T06:01:23.315Z,100.00
2022-09-30T06:03:52.545Z,100.00
2022-09-30T06:06:21.902Z,100.00
2022-09-30T06:08:51.259Z,100.00
2022-09-30T06:11:25.172Z,100.00
2022-09-30T06:13:56.359Z,100.00
2022-09-30T06:16:25.971Z,100.00
2022-09-30T06:18:55.535Z,100.00
2022-09-30T06:21:26.970Z,100.00
2022-09-30T06:24:00.820Z,100.00
2022-09-30T06:26:30.360Z,100.00
2022-09-30T06:29:01.027Z,100.00
2022-09-30T06:31:31.166Z,100.00
2022-09-30T06:34:01.805Z,100.00
2022-09-30T06:36:33.423Z,100.00
2022-09-30T06:39:02.981Z,100.00
2022-09-30T06:41:32.702Z,100.00
2022-09-30T06:44:07.458Z,100.00
2022-09-30T06:46:41.483Z,100.00
2022-09-30T06:49:14.059Z,100.00
2022-09-30T06:51:43.426Z,100.00
2022-09-30T06:54:13.701Z,100.00
2022-09-30T06:56:44.080Z,100.00
2022-09-30T06:59:17.269Z,100.00
2022-09-30T07:01:46.626Z,100.00
2022-09-30T07:04:16.711Z,100.00
2022-09-30T07:06:46.554Z,100.00
2022-09-30T07:09:15.908Z,100.00
2022-09-30T07:11:45.586Z,100.00
2022-09-30T07:14:16.165Z,100.00
2022-09-30T07:16:52.052Z,100.00
2022-09-30T07:19:23.002Z,100.00
2022-09-30T07:21:52.577Z,100.00
2022-09-30T07:24:22.131Z,100.00
2022-09-30T07:26:52.395Z,100.00
2022-09-30T07:29:22.881Z,100.00
2022-09-30T07:31:53.009Z,100.00
2022-09-30T07:34:22.769Z,100.00
2022-09-30T07:36:52.533Z,100.00
2022-09-30T07:39:22.319Z,100.00
2022-09-30T07:41:51.588Z,100.00
2022-09-30T07:44:22.576Z,100.00
2022-09-30T07:46:51.676Z,100.00
2022-09-30T07:49:24.896Z,100.00
2022-09-30T07:51:55.880Z,100.00
2022-09-30T07:54:27.004Z,100.00
2022-09-30T07:57:09.847Z,100.00
2022-09-30T07:59:43.068Z,100.00
2022-09-30T08:02:16.558Z,100.00
2022-09-30T08:04:46.255Z,100.00
2022-09-30T08:07:19.150Z,100.00
2022-09-30T08:09:48.175Z,100.00
2022-09-30T08:12:17.337Z,100.00
2022-09-30T08:14:47.795Z,100.00
2022-09-30T08:17:16.723Z,100.00
2022-09-30T08:19:45.558Z,100.00
2022-09-30T08:22:16.650Z,100.00
2022-09-30T08:24:45.756Z,100.00
2022-09-30T08:27:15.341Z,100.00
2022-09-30T08:30:04.271Z,100.00
2022-09-30T08:32:38.194Z,100.00
2022-09-30T08:35:08.323Z,100.00
2022-09-30T08:37:37.363Z,100.00
2022-09-30T08:40:07.941Z,100.00
2022-09-30T08:42:52.977Z,100.00
2022-09-30T08:45:37.028Z,100.00
2022-09-30T08:48:21.878Z,100.00
2022-09-30T08:51:02.036Z,100.00
2022-09-30T08:53:36.537Z,100.00
2022-09-30T08:56:07.866Z,100.00
2022-09-30T08:58:41.487Z,100.00
2022-09-30T09:01:18.593Z,100.00
2022-09-30T09:03:50.936Z,100.00
2022-09-30T09:06:32.221Z,100.00
2022-09-30T09:09:13.091Z,100.00
2022-09-30T09:11:54.780Z,100.00
2022-09-30T09:14:34.732Z,100.00
2022-09-30T09:17:15.696Z,100.00
2022-09-30T09:19:52.385Z,100.00
2022-09-30T09:22:24.737Z,100.00
2022-09-30T09:24:55.275Z,100.00
2022-09-30T09:27:27.930Z,100.00
2022-09-30T09:30:06.759Z,100.00
2022-09-30T09:32:37.218Z,100.00
2022-09-30T09:35:16.505Z,100.00
2022-09-30T09:38:14.944Z,100.00
2022-09-30T09:40:58.232Z,100.00
2022-09-30T09:43:36.364Z,100.00
2022-09-30T09:46:16.945Z,100.00
2022-09-30T09:48:47.170Z,100.00
2022-09-30T09:51:25.631Z,100.00
2022-09-30T09:53:58.275Z,100.00
2022-09-30T09:56:32.562Z,100.00
2022-09-30T09:59:15.954Z,100.00
2022-09-30T10:01:50.531Z,100.00
2022-09-30T10:04:24.526Z,100.00
2022-09-30T10:07:00.098Z,100.00
2022-09-30T10:09:33.076Z,100.00
2022-09-30T10:12:29.442Z,100.00
2022-09-30T10:15:01.771Z,100.00
2022-09-30T10:17:34.389Z,100.00
2022-09-30T10:20:08.217Z,100.00
2022-09-30T10:22:38.895Z,100.00
2022-09-30T10:25:29.356Z,100.00
2022-09-30T10:28:00.145Z,100.00
2022-09-30T10:30:52.707Z,80.31
2022-09-30T10:33:27.276Z,65.50
2022-09-30T10:36:07.049Z,78.28
2022-09-30T10:41:09.511Z,69.52
2022-09-30T10:43:45.619Z,100.00
2022-09-30T10:46:27.184Z,100.00
2022-09-30T10:48:59.091Z,88.67
2022-09-30T10:51:33.971Z,96.03
2022-09-30T10:54:05.467Z,97.68
2022-09-30T10:56:40.944Z,100.00
2022-09-30T10:59:32.901Z,100.00
2022-09-30T11:02:15.955Z,100.00
2022-09-30T11:04:48.470Z,100.00
2022-09-30T11:07:27.451Z,100.00
2022-09-30T11:10:04.087Z,100.00
2022-09-30T11:12:42.150Z,100.00
2022-09-30T11:15:21.345Z,100.00
2022-09-30T11:17:56.101Z,100.00
2022-09-30T11:20:30.517Z,100.00
2022-09-30T11:23:04.527Z,100.00
2022-09-30T11:25:43.972Z,100.00
2022-09-30T11:28:26.832Z,100.00
2022-09-30T11:31:07.016Z,94.02
2022-09-30T11:33:45.140Z,72.85
2022-09-30T11:36:20.698Z,80.38
2022-09-30T11:39:11.615Z,100.00
2022-09-30T11:41:47.654Z,100.00
2022-09-30T11:44:27.295Z,100.00
2022-09-30T11:47:24.407Z,100.00
2022-09-30T11:50:10.364Z,100.00
2022-09-30T11:52:51.111Z,100.00
2022-09-30T11:55:41.346Z,100.00
2022-09-30T11:58:39.314Z,79.03
2022-09-30T12:01:22.650Z,56.11
2022-09-30T12:04:01.012Z,60.29
2022-09-30T12:06:38.395Z,59.97
2022-09-30T12:09:20.379Z,51.87
2022-09-30T12:11:54.925Z,55.93
2022-09-30T12:14:31.051Z,74.21
2022-09-30T12:17:03.597Z,76.71
2022-09-30T12:19:35.382Z,85.41
2022-09-30T12:22:12.228Z,92.60
2022-09-30T12:24:45.378Z,94.38
2022-09-30T12:27:21.105Z,100.00
2022-09-30T12:30:17.950Z,100.00
2022-09-30T12:33:16.217Z,100.00
2022-09-30T12:36:28.800Z,100.00
2022-09-30T12:39:26.738Z,100.00
2022-09-30T12:42:13.118Z,100.00
2022-09-30T12:45:33.212Z,71.25
2022-09-30T12:48:11.883Z,59.67
2022-09-30T12:50:50.308Z,64.53
2022-09-30T12:53:25.517Z,86.67
2022-09-30T12:55:56.584Z,89.27
2022-09-30T12:58:31.378Z,99.28
2022-09-30T13:01:05.971Z,100.00
2022-09-30T13:03:51.822Z,100.00
2022-09-30T13:06:23.145Z,100.00
2022-09-30T13:09:23.498Z,100.00
2022-09-30T13:12:27.302Z,100.00
2022-09-30T13:15:41.039Z,88.53
2022-09-30T13:18:48.526Z,78.66
2022-09-30T13:21:27.256Z,100.00
2022-09-30T13:23:58.617Z,100.00
2022-09-30T13:26:47.248Z,100.00
2022-09-30T13:29:40.099Z,100.00
2022-09-30T13:32:12.722Z,76.74
2022-09-30T13:34:58.289Z,76.70
2022-09-30T13:37:39.280Z,58.25
2022-09-30T13:40:43.303Z,59.63
2022-09-30T13:43:19.783Z,62.97
2022-09-30T13:45:51.295Z,63.06
2022-09-30T13:48:27.224Z,65.41
2022-09-30T13:51:06.231Z,60.22
2022-09-30T13:54:36.603Z,56.33
2022-09-30T13:57:55.277Z,98.01
2022-09-30T14:00:48.784Z,100.00
2022-09-30T14:03:40.480Z,100.00
2022-09-30T14:06:20.419Z,84.45
2022-09-30T14:09:19.001Z,70.17
2022-09-30T14:12:14.640Z,64.81
2022-09-30T14:15:09.295Z,76.61
2022-09-30T14:17:54.629Z,94.97
2022-09-30T14:20:37.121Z,100.00
2022-09-30T14:23:15.028Z,100.00
2022-09-30T14:25:53.987Z,100.00
2022-09-30T14:28:33.482Z,100.00
2022-09-30T14:31:13.759Z,100.00
2022-09-30T14:33:45.853Z,100.00
2022-09-30T14:36:19.233Z,100.00
2022-09-30T14:39:11.785Z,100.00
2022-09-30T14:41:45.182Z,100.00
2022-09-30T14:44:18.425Z,100.00
2022-09-30T14:46:56.909Z,100.00
2022-09-30T14:49:34.180Z,100.00
2022-09-30T14:52:05.048Z,100.00
2022-09-30T14:54:49.949Z,100.00
2022-09-30T15:02:20.856Z,100.00
2022-09-30T15:04:55.231Z,100.00
2022-09-30T15:07:28.177Z,100.00
2022-09-30T15:10:03.419Z,100.00
2022-09-30T15:12:39.088Z,100.00
2022-09-30T15:15:26.859Z,100.00
2022-09-30T15:17:57.944Z,100.00
2022-09-30T15:20:32.620Z,100.00
2022-09-30T15:23:05.004Z,100.00
2022-09-30T15:25:34.951Z,100.00
2022-09-30T15:28:05.364Z,100.00
2022-09-30T15:30:37.404Z,100.00
2022-09-30T15:33:15.801Z,100.00
2022-09-30T15:35:45.871Z,100.00
2022-09-30T15:38:21.738Z,100.00
2022-09-30T15:40:59.500Z,100.00
2022-09-30T15:43:40.715Z,100.00
2022-09-30T15:46:30.051Z,100.00
2022-09-30T15:49:02.950Z,100.00
2022-09-30T15:51:38.667Z,100.00
2022-09-30T15:54:38.125Z,100.00
2022-09-30T15:57:43.493Z,100.00
2022-09-30T16:00:39.558Z,100.00
2022-09-30T16:03:28.754Z,100.00
2022-09-30T16:06:09.327Z,100.00
2022-09-30T16:08:45.090Z,100.00
2022-09-30T16:11:24.914Z,100.00
2022-09-30T16:13:58.216Z,100.00
2022-09-30T16:16:32.550Z,100.00
2022-09-30T16:19:38.333Z,100.00
2022-09-30T16:22:41.291Z,100.00
2022-09-30T16:25:18.508Z,100.00
2022-09-30T16:27:51.421Z,100.00
2022-09-30T16:30:30.142Z,100.00
2022-09-30T16:33:18.898Z,100.00
2022-09-30T16:35:48.780Z,100.00
2022-09-30T16:38:20.442Z,100.00
2022-09-30T16:40:53.643Z,100.00
2022-09-30T16:43:25.480Z,100.00
2022-09-30T16:45:55.121Z,100.00
2022-09-30T16:48:26.361Z,100.00
2022-09-30T16:51:05.820Z,100.00
2022-09-30T16:53:37.745Z,100.00
2022-09-30T16:56:08.199Z,100.00
2022-09-30T16:58:38.810Z,100.00
2022-09-30T17:01:19.833Z,100.00
2022-09-30T17:03:50.567Z,100.00
2022-09-30T17:06:29.023Z,100.00
2022-09-30T17:09:02.514Z,100.00
2022-09-30T17:11:33.743Z,100.00
2022-09-30T17:14:05.233Z,100.00
2022-09-30T17:16:36.767Z,100.00
2022-09-30T17:19:07.389Z,100.00
2022-09-30T17:21:39.861Z,100.00
2022-09-30T17:24:13.645Z,100.00
2022-09-30T17:26:44.365Z,100.00
2022-09-30T17:29:31.294Z,100.00
2022-09-30T17:32:02.068Z,100.00
2022-09-30T17:34:32.756Z,100.00
2022-09-30T17:37:02.458Z,100.00
2022-09-30T17:39:35.580Z,100.00
2022-09-30T17:42:22.769Z,100.00
2022-09-30T17:44:52.688Z,100.00
2022-09-30T17:47:26.864Z,100.00
2022-09-30T17:49:57.864Z,100.00
2022-09-30T17:52:28.200Z,100.00
2022-09-30T17:55:00.343Z,100.00
2022-09-30T17:57:31.051Z,100.00
2022-09-30T18:00:02.639Z,100.00
2022-09-30T18:02:38.977Z,100.00
2022-09-30T18:05:09.601Z,100.00
2022-09-30T18:07:39.974Z,100.00
2022-09-30T18:10:12.711Z,100.00
2022-09-30T18:12:44.835Z,100.00
2022-09-30T18:15:14.725Z,100.00
2022-09-30T18:17:49.162Z,100.00
2022-09-30T18:20:23.318Z,100.00
2022-09-30T18:22:56.979Z,100.00
2022-09-30T18:25:32.183Z,100.00
2022-09-30T18:28:01.969Z,100.00
2022-09-30T18:30:31.903Z,100.00
2022-09-30T18:33:04.904Z,100.00
2022-09-30T18:35:37.665Z,100.00
2022-09-30T18:38:08.156Z,100.00
2022-09-30T18:40:45.896Z,100.00
2022-09-30T18:43:17.065Z,100.00
2022-09-30T18:45:55.060Z,100.00
2022-09-30T18:48:26.180Z,100.00
2022-09-30T18:50:58.740Z,100.00
2022-09-30T18:53:31.799Z,100.00
2022-09-30T18:56:06.186Z,100.00
2022-09-30T18:58:36.948Z,100.00
2022-09-30T19:01:09.197Z,100.00
2022-09-30T19:03:41.824Z,100.00
2022-09-30T19:06:12.075Z,100.00
2022-09-30T19:08:44.557Z,100.00
2022-09-30T19:11:18.923Z,100.00
2022-09-30T19:13:50.154Z,100.00
2022-09-30T19:16:22.863Z,100.00
2022-09-30T19:19:01.591Z,100.00
2022-09-30T19:21:37.869Z,100.00
2022-09-30T19:27:27.400Z,100.00
2022-09-30T19:29:59.447Z,100.00
2022-09-30T19:32:34.581Z,100.00
2022-09-30T19:35:06.867Z,100.00
2022-09-30T19:37:36.756Z,100.00
2022-09-30T19:40:20.606Z,100.00
2022-09-30T19:42:52.707Z,100.00
2022-09-30T19:45:29.303Z,100.00
2022-09-30T19:48:02.753Z,100.00
2022-09-30T19:50:42.458Z,100.00
2022-09-30T19:53:26.811Z,100.00
2022-09-30T19:56:17.629Z,100.00
2022-09-30T19:58:53.557Z,100.00
2022-09-30T20:01:28.624Z,100.00
2022-09-30T20:04:00.413Z,100.00
2022-09-30T20:06:30.076Z,100.00
2022-09-30T20:09:08.968Z,100.00
2022-09-30T20:11:40.835Z,100.00
2022-09-30T20:14:30.790Z,100.00
2022-09-30T20:17:00.623Z,100.00
2022-09-30T20:19:30.724Z,100.00
2022-09-30T20:22:00.338Z,100.00
2022-09-30T20:24:32.078Z,100.00
2022-09-30T20:27:04.414Z,100.00
2022-09-30T20:29:35.555Z,100.00
2022-09-30T20:32:06.167Z,100.00
2022-09-30T20:34:38.877Z,100.00
2022-09-30T20:37:11.224Z,100.00
2022-09-30T20:39:42.482Z,100.00
2022-09-30T20:42:12.326Z,100.00
2022-09-30T20:44:45.410Z,100.00
2022-09-30T20:47:14.790Z,100.00
2022-09-30T20:49:44.604Z,100.00
2022-09-30T20:52:14.303Z,100.00
2022-09-30T20:54:44.524Z,100.00
2022-09-30T20:57:14.139Z,100.00
2022-09-30T20:59:45.489Z,100.00
2022-09-30T21:02:15.305Z,100.00
2022-09-30T21:04:44.467Z,100.00
2022-09-30T21:07:14.593Z,100.00
2022-09-30T21:09:44.065Z,100.00
2022-09-30T21:12:14.614Z,100.00
2022-09-30T21:14:45.735Z,100.00
2022-09-30T21:17:15.457Z,100.00
2022-09-30T21:19:44.708Z,100.00
2022-09-30T21:22:14.119Z,100.00
2022-09-30T21:24:43.849Z,100.00
2022-09-30T21:27:13.962Z,100.00
2022-09-30T21:29:43.858Z,100.00
2022-09-30T21:32:15.535Z,100.00
2022-09-30T21:34:44.923Z,100.00
2022-09-30T21:37:14.313Z,100.00
2022-09-30T21:39:48.349Z,100.00
2022-09-30T21:42:17.727Z,100.00
2022-09-30T21:44:47.233Z,100.00
2022-09-30T21:47:17.889Z,100.00
2022-09-30T21:49:47.307Z,100.00
2022-09-30T21:52:16.607Z,100.00
2022-09-30T21:54:45.876Z,100.00
2022-09-30T21:57:16.653Z,100.00
2022-09-30T21:59:50.282Z,100.00
2022-09-30T22:02:21.096Z,100.00
2022-09-30T22:04:51.307Z,100.00
2022-09-30T22:07:25.925Z,100.00
2022-09-30T22:09:55.634Z,100.00
2022-09-30T22:12:26.801Z,100.00
2022-09-30T22:14:56.643Z,100.00
2022-09-30T22:17:28.046Z,100.00
2022-09-30T22:19:58.041Z,100.00
2022-09-30T22:22:27.203Z,100.00
2022-09-30T22:24:56.469Z,100.00
2022-09-30T22:27:26.006Z,100.00
2022-09-30T22:29:55.313Z,100.00
2022-09-30T22:32:24.931Z,100.00
2022-09-30T22:35:13.835Z,100.00
2022-09-30T22:38:03.345Z,100.00
2022-09-30T22:40:32.568Z,100.00
2022-09-30T22:43:01.497Z,100.00
2022-09-30T22:45:31.112Z,100.00
2022-09-30T22:48:00.451Z,100.00
2022-09-30T22:50:31.195Z,100.00
2022-09-30T22:53:00.646Z,100.00
2022-09-30T22:55:30.395Z,100.00
2022-09-30T22:57:59.596Z,100.00
2022-09-30T23:00:28.767Z,100.00
2022-09-30T23:02:58.058Z,100.00
2022-09-30T23:05:27.591Z,100.00
2022-09-30T23:07:58.150Z,100.00
2022-09-30T23:10:27.385Z,100.00
2022-09-30T23:12:56.542Z,100.00
2022-09-30T23:15:27.156Z,100.00
2022-09-30T23:17:56.284Z,100.00
2022-09-30T23:20:25.649Z,100.00
2022-09-30T23:22:54.772Z,100.00
2022-09-30T23:25:25.342Z,100.00
2022-09-30T23:27:54.543Z,100.00
2022-09-30T23:30:25.009Z,100.00
2022-09-30T23:32:54.337Z,100.00
2022-09-30T23:35:23.889Z,100.00
2022-09-30T23:37:53.746Z,100.00
2022-09-30T23:40:24.406Z,100.00
2022-09-30T23:42:54.383Z,100.00
2022-09-30T23:45:23.618Z,100.00
2022-09-30T23:47:57.448Z,100.00
2022-09-30T23:50:26.831Z,100.00
2022-09-30T23:52:57.566Z,100.00
2022-09-30T23:55:28.462Z,100.00
2022-09-30T23:57:58.022Z,100.00
